Erma, New Jersey
Current Conditions -  °F | °C
As of 11:15 AM on Tuesday 21 Oct 2014 (Local Time) from KWWD Reporting Station
Few Clouds Few Clouds  
Wind Chill: 64°   Ceiling: Unl
Heat Index: 64°   Visibility: 10mi
Dew Point: 54°   Wind: 8mph
Humidity: 68%   Direction: 260°W
Pressure: 29.88"   Gusts: NA
Location:  38.9876°N, 74.9167°W
Report Text: KWWD 211515Z AUTO 26007KT 230V290 10SM FEW085 18/12 A2988 RMK AO1
Loading
Personal Weather Stations






























Interactive Weather Map
Tropical Storm Tracking
New forecast layout! Learn more

10-Day Weather Forecast

Advertisements
Track Severe Weather on mobile